createdAt,value
2022-11-20T00:00:17.853Z,2.68
2022-11-20T00:00:49.423Z,2.69
2022-11-20T00:01:23.674Z,2.76
2022-11-20T00:01:55.316Z,2.76
2022-11-20T00:02:27.138Z,2.76
2022-11-20T00:02:58.741Z,2.76
2022-11-20T00:03:30.374Z,2.75
2022-11-20T00:04:02.209Z,2.66
2022-11-20T00:04:33.806Z,2.66
2022-11-20T00:05:05.849Z,2.66
2022-11-20T00:05:37.387Z,2.63
2022-11-20T00:06:11.644Z,2.66
2022-11-20T00:06:43.274Z,2.72
2022-11-20T00:07:14.925Z,2.72
2022-11-20T00:07:46.541Z,2.81
2022-11-20T00:08:18.167Z,2.76
2022-11-20T00:08:50.479Z,2.72
2022-11-20T00:09:22.410Z,2.65
2022-11-20T00:09:54.406Z,2.68
2022-11-20T00:10:26.005Z,2.72
2022-11-20T00:10:57.672Z,2.73
2022-11-20T00:11:31.252Z,2.73
2022-11-20T00:12:02.988Z,2.73
2022-11-20T00:12:34.663Z,2.71
2022-11-20T00:13:06.568Z,2.68
2022-11-20T00:13:38.183Z,2.65
2022-11-20T00:14:10.800Z,2.72
2022-11-20T00:14:42.442Z,2.76
2022-11-20T00:15:14.012Z,2.68
2022-11-20T00:15:45.643Z,2.73
2022-11-20T00:16:20.203Z,2.78
2022-11-20T00:16:51.816Z,2.73
2022-11-20T00:17:23.996Z,2.72
2022-11-20T00:17:55.588Z,2.75
2022-11-20T00:18:28.297Z,2.73
2022-11-20T00:18:59.982Z,2.82
2022-11-20T00:19:31.595Z,2.76
2022-11-20T00:20:03.298Z,2.83
2022-11-20T00:20:34.855Z,2.83
2022-11-20T00:21:10.587Z,2.79
2022-11-20T00:21:42.193Z,2.85
2022-11-20T00:22:13.771Z,2.73
2022-11-20T00:22:45.415Z,2.69
2022-11-20T00:23:16.982Z,2.78
2022-11-20T00:23:49.498Z,2.78
2022-11-20T00:24:21.057Z,2.68
2022-11-20T00:24:52.612Z,2.66
2022-11-20T00:25:24.167Z,2.68
2022-11-20T00:25:55.738Z,2.75
2022-11-20T00:26:28.727Z,2.59
2022-11-20T00:27:00.270Z,2.66
2022-11-20T00:27:31.857Z,2.69
2022-11-20T00:28:03.571Z,2.72
2022-11-20T00:28:35.487Z,2.66
2022-11-20T00:29:07.175Z,2.71
2022-11-20T00:29:38.755Z,2.73
2022-11-20T00:30:14.674Z,2.73
2022-11-20T00:30:46.541Z,2.71
2022-11-20T00:31:18.370Z,2.72
2022-11-20T00:31:49.947Z,2.71
2022-11-20T00:32:21.495Z,2.75
2022-11-20T00:32:53.038Z,2.71
2022-11-20T00:33:24.671Z,2.59
2022-11-20T00:33:56.524Z,2.68
2022-11-20T00:34:28.070Z,2.53
2022-11-20T00:34:59.656Z,2.52
2022-11-20T00:35:31.214Z,2.55
2022-11-20T00:36:17.172Z,2.55
2022-11-20T00:36:48.902Z,2.48
2022-11-20T00:37:20.516Z,2.46
2022-11-20T00:37:52.104Z,2.51
2022-11-20T00:38:23.759Z,2.59
2022-11-20T00:38:57.925Z,2.59
2022-11-20T00:39:29.562Z,2.61
2022-11-20T00:40:01.123Z,2.59
2022-11-20T00:40:32.704Z,2.56
2022-11-20T00:41:09.439Z,2.68
2022-11-20T00:41:41.040Z,2.69
2022-11-20T00:42:12.587Z,2.62
2022-11-20T00:42:44.191Z,2.62
2022-11-20T00:43:15.722Z,2.55
2022-11-20T00:43:47.346Z,2.55
2022-11-20T00:44:18.895Z,2.55
2022-11-20T00:44:50.491Z,2.69
2022-11-20T00:45:22.178Z,2.71
2022-11-20T00:46:01.339Z,2.68
2022-11-20T00:46:33.027Z,2.66
2022-11-20T00:47:04.729Z,2.71
2022-11-20T00:47:36.329Z,2.69
2022-11-20T00:48:07.930Z,2.65
2022-11-20T00:48:39.534Z,2.66
2022-11-20T00:49:11.114Z,2.63
2022-11-20T00:49:42.715Z,2.68
2022-11-20T00:50:14.424Z,2.71
2022-11-20T00:50:46.002Z,2.76
2022-11-20T00:51:20.299Z,2.72
2022-11-20T00:51:51.874Z,2.68
2022-11-20T00:52:23.423Z,2.73
2022-11-20T00:52:55.006Z,2.71
2022-11-20T00:53:27.087Z,2.71
2022-11-20T00:54:00.940Z,2.69
2022-11-20T00:54:32.691Z,2.65
2022-11-20T00:55:04.534Z,2.66
2022-11-20T00:55:36.187Z,2.71
2022-11-20T00:56:11.187Z,2.62
2022-11-20T00:56:42.719Z,2.65
2022-11-20T00:57:14.328Z,2.62
2022-11-20T00:57:45.875Z,2.58
2022-11-20T00:58:17.447Z,2.56
2022-11-20T00:58:49.896Z,2.65
2022-11-20T00:59:21.744Z,2.59
2022-11-20T00:59:53.476Z,2.58
2022-11-20T01:00:25.073Z,2.68
2022-11-20T01:01:06.195Z,2.55
2022-11-20T01:01:38.404Z,2.63
2022-11-20T01:02:10.131Z,2.69
2022-11-20T01:02:41.719Z,2.66
2022-11-20T01:03:13.274Z,2.46
2022-11-20T01:03:46.974Z,2.66
2022-11-20T01:04:18.563Z,2.59
2022-11-20T01:04:50.426Z,2.59
2022-11-20T01:05:21.975Z,2.52
2022-11-20T01:05:53.542Z,2.52
2022-11-20T01:06:30.747Z,2.61
2022-11-20T01:07:02.346Z,2.69
2022-11-20T01:07:33.998Z,2.56
2022-11-20T01:08:05.814Z,2.40
2022-11-20T01:08:38.111Z,2.44
2022-11-20T01:09:13.467Z,2.45
2022-11-20T01:09:45.107Z,2.38
2022-11-20T01:10:16.675Z,2.42
2022-11-20T01:10:48.238Z,2.46
2022-11-20T01:11:31.709Z,2.42
2022-11-20T01:12:03.434Z,2.41
2022-11-20T01:12:35.070Z,2.38
2022-11-20T01:13:25.867Z,2.41
2022-11-20T01:13:59.415Z,2.37
2022-11-20T01:14:30.980Z,2.37
2022-11-20T01:15:02.552Z,2.32
2022-11-20T01:15:35.080Z,2.41
2022-11-20T01:16:06.777Z,2.31
2022-11-20T01:16:44.455Z,2.42
2022-11-20T01:17:16.031Z,2.58
2022-11-20T01:17:47.629Z,2.55
2022-11-20T01:18:19.346Z,2.34
2022-11-20T01:18:53.426Z,2.23
2022-11-20T01:19:25.386Z,2.17
2022-11-20T01:19:57.127Z,2.15
2022-11-20T01:20:28.717Z,2.13
2022-11-20T01:21:09.874Z,2.18
2022-11-20T01:21:43.963Z,2.13
2022-11-20T01:22:15.541Z,2.10
2022-11-20T01:22:47.091Z,2.04
2022-11-20T01:23:18.678Z,2.04
2022-11-20T01:23:51.287Z,2.03
2022-11-20T01:24:23.130Z,2.09
2022-11-20T01:24:54.759Z,2.14
2022-11-20T01:25:26.447Z,2.15
2022-11-20T01:25:58.049Z,2.15
2022-11-20T01:26:32.597Z,2.20
2022-11-20T01:27:04.214Z,2.25
2022-11-20T01:27:35.764Z,2.32
2022-11-20T01:28:07.347Z,2.32
2022-11-20T01:28:39.927Z,2.34
2022-11-20T01:29:18.093Z,2.31
2022-11-20T01:29:49.776Z,2.30
2022-11-20T01:30:21.382Z,2.31
2022-11-20T01:30:52.910Z,2.30
2022-11-20T01:31:28.298Z,2.32
2022-11-20T01:31:59.901Z,2.31
2022-11-20T01:32:31.478Z,2.37
2022-11-20T01:33:03.602Z,2.37
2022-11-20T01:33:35.173Z,2.37
2022-11-20T01:34:18.484Z,2.38
2022-11-20T01:34:50.072Z,2.44
2022-11-20T01:35:21.686Z,2.38
2022-11-20T01:35:54.046Z,2.48
2022-11-20T01:36:28.495Z,2.45
2022-11-20T01:37:00.109Z,2.45
2022-11-20T01:37:31.666Z,2.42
2022-11-20T01:38:03.252Z,2.44
2022-11-20T01:38:35.181Z,2.51
2022-11-20T01:39:11.142Z,2.45
2022-11-20T01:39:42.701Z,2.44
2022-11-20T01:40:14.427Z,2.45
2022-11-20T01:40:45.990Z,2.49
2022-11-20T01:41:36.449Z,2.51
2022-11-20T01:42:27.144Z,2.52
2022-11-20T01:43:23.960Z,2.52
2022-11-20T01:43:55.540Z,2.51
2022-11-20T01:44:49.367Z,2.56
2022-11-20T01:45:54.891Z,2.58
2022-11-20T01:46:26.542Z,2.52
2022-11-20T01:47:05.647Z,2.49
2022-11-20T01:47:47.378Z,2.49
2022-11-20T01:48:22.879Z,2.48
2022-11-20T01:49:02.314Z,2.45
2022-11-20T01:49:41.746Z,2.52
2022-11-20T01:50:19.622Z,2.55
2022-11-20T01:50:53.626Z,2.48
2022-11-20T01:51:51.154Z,2.55
2022-11-20T01:52:54.204Z,2.58
2022-11-20T01:53:31.198Z,2.55
2022-11-20T01:54:08.038Z,2.51
2022-11-20T01:54:45.121Z,2.41
2022-11-20T01:55:22.512Z,2.44
2022-11-20T01:55:58.054Z,2.44
2022-11-20T01:56:33.546Z,2.45
2022-11-20T01:57:07.198Z,2.44
2022-11-20T01:57:39.698Z,2.49
2022-11-20T01:58:11.442Z,2.48
2022-11-20T01:58:49.638Z,2.53
2022-11-20T01:59:23.904Z,2.48
2022-11-20T02:00:00.906Z,2.52
2022-11-20T02:01:14.191Z,2.21
2022-11-20T02:01:46.093Z,2.32
2022-11-20T02:02:17.723Z,2.45
2022-11-20T02:02:59.507Z,2.51
2022-11-20T02:03:31.835Z,2.45
2022-11-20T02:04:03.852Z,2.51
2022-11-20T02:04:35.551Z,2.52
2022-11-20T02:05:18.416Z,2.51
2022-11-20T02:06:13.723Z,2.48
2022-11-20T02:06:49.486Z,2.38
2022-11-20T02:07:22.086Z,2.46
2022-11-20T02:07:54.873Z,2.52
2022-11-20T02:08:26.422Z,2.44
2022-11-20T02:08:57.959Z,2.51
2022-11-20T02:09:29.724Z,2.51
2022-11-20T02:10:01.520Z,2.52
2022-11-20T02:10:33.573Z,2.59
2022-11-20T02:11:05.357Z,2.58
2022-11-20T02:11:36.924Z,2.48
2022-11-20T02:12:28.552Z,2.45
2022-11-20T02:13:18.908Z,2.46
2022-11-20T02:13:51.229Z,2.51
2022-11-20T02:14:24.047Z,2.46
2022-11-20T02:14:55.619Z,2.48
2022-11-20T02:15:30.308Z,2.51
2022-11-20T02:16:03.214Z,2.62
2022-11-20T02:16:38.627Z,2.61
2022-11-20T02:17:12.163Z,2.63
2022-11-20T02:17:43.775Z,2.69
2022-11-20T02:18:17.143Z,2.75
2022-11-20T02:18:49.418Z,2.78
2022-11-20T02:19:31.717Z,2.72
2022-11-20T02:20:04.101Z,2.69
2022-11-20T02:20:35.715Z,2.68
2022-11-20T02:21:26.417Z,2.65
2022-11-20T02:22:18.283Z,2.66
2022-11-20T02:22:58.377Z,2.66
2022-11-20T02:23:32.631Z,2.62
2022-11-20T02:24:10.884Z,2.61
2022-11-20T02:24:44.881Z,2.52
2022-11-20T02:25:17.117Z,2.62
2022-11-20T02:25:49.121Z,2.65
2022-11-20T02:26:23.072Z,2.59
2022-11-20T02:26:59.443Z,2.59
2022-11-20T02:27:31.166Z,2.56
2022-11-20T02:28:03.782Z,2.53
2022-11-20T02:28:35.691Z,2.55
2022-11-20T02:29:07.274Z,2.51
2022-11-20T02:29:56.690Z,2.53
2022-11-20T02:30:28.279Z,2.53
2022-11-20T02:30:59.879Z,2.58
2022-11-20T02:31:38.599Z,2.65
2022-11-20T02:32:39.758Z,2.63
2022-11-20T02:33:11.315Z,2.63
2022-11-20T02:33:42.887Z,2.59
2022-11-20T02:34:14.518Z,2.56
2022-11-20T02:34:46.179Z,2.53
2022-11-20T02:35:20.501Z,2.53
2022-11-20T02:35:52.067Z,2.53
2022-11-20T02:36:26.923Z,2.53
2022-11-20T02:37:00.132Z,2.53
2022-11-20T02:37:35.099Z,2.46
2022-11-20T02:38:06.723Z,2.46
2022-11-20T02:38:38.499Z,2.42
2022-11-20T02:39:13.182Z,2.42
2022-11-20T02:39:47.015Z,2.48
2022-11-20T02:40:18.716Z,2.40
2022-11-20T02:40:55.115Z,2.31
2022-11-20T02:41:38.271Z,2.41
2022-11-20T02:42:09.856Z,2.44
2022-11-20T02:42:41.584Z,2.49
2022-11-20T02:43:13.299Z,2.53
2022-11-20T02:43:44.866Z,2.62
2022-11-20T02:44:16.508Z,2.68
2022-11-20T02:44:48.083Z,2.66
2022-11-20T02:45:19.779Z,2.66
2022-11-20T02:45:51.556Z,2.66
2022-11-20T02:46:23.100Z,2.71
2022-11-20T02:46:57.685Z,2.71
2022-11-20T02:47:29.331Z,2.69
2022-11-20T02:48:01.008Z,2.69
2022-11-20T02:48:34.054Z,2.69
2022-11-20T02:49:06.288Z,2.68
2022-11-20T02:49:37.957Z,2.62
2022-11-20T02:50:09.662Z,2.62
2022-11-20T02:50:41.544Z,2.58
2022-11-20T02:51:13.096Z,2.58
2022-11-20T02:51:44.975Z,2.51
2022-11-20T02:52:16.554Z,2.58
2022-11-20T02:52:48.187Z,2.63
2022-11-20T02:53:19.825Z,2.61
2022-11-20T02:53:51.616Z,2.62
2022-11-20T02:54:23.879Z,2.61
2022-11-20T02:54:55.700Z,2.61
2022-11-20T02:55:27.329Z,2.63
2022-11-20T02:55:58.911Z,2.66
2022-11-20T02:56:30.814Z,2.63
2022-11-20T02:57:02.502Z,2.56
2022-11-20T02:57:34.220Z,2.55
2022-11-20T02:58:05.841Z,2.56
2022-11-20T02:58:37.396Z,2.58
2022-11-20T02:59:09.314Z,2.62
2022-11-20T02:59:40.878Z,2.62
2022-11-20T03:00:13.166Z,2.63
2022-11-20T03:00:44.753Z,2.69
2022-11-20T03:01:16.618Z,2.73
2022-11-20T03:01:48.222Z,2.73
2022-11-20T03:02:20.193Z,2.65
2022-11-20T03:02:51.768Z,2.65
2022-11-20T03:03:23.369Z,2.58
2022-11-20T03:03:55.893Z,2.59
2022-11-20T03:04:27.458Z,2.61
2022-11-20T03:04:59.112Z,2.56
2022-11-20T03:05:30.705Z,2.63
2022-11-20T03:06:02.409Z,2.61
2022-11-20T03:06:34.305Z,2.69
2022-11-20T03:07:06.065Z,2.66
2022-11-20T03:07:37.758Z,2.59
2022-11-20T03:08:09.377Z,2.56
2022-11-20T03:08:40.947Z,2.56
2022-11-20T03:09:12.860Z,2.61
2022-11-20T03:09:44.401Z,2.68
2022-11-20T03:10:16.065Z,2.66
2022-11-20T03:10:47.607Z,2.63
2022-11-20T03:11:19.333Z,2.49
2022-11-20T03:11:51.055Z,2.58
2022-11-20T03:12:22.599Z,2.61
2022-11-20T03:12:57.567Z,2.61
2022-11-20T03:13:29.199Z,2.62
2022-11-20T03:14:04.194Z,2.52
2022-11-20T03:14:35.738Z,2.61
2022-11-20T03:15:07.904Z,2.52
2022-11-20T03:15:39.502Z,2.55
2022-11-20T03:16:14.477Z,2.59
2022-11-20T03:16:46.033Z,2.72
2022-11-20T03:17:17.692Z,2.71
2022-11-20T03:17:49.351Z,2.63
2022-11-20T03:18:20.927Z,2.68
2022-11-20T03:18:53.726Z,2.69
2022-11-20T03:19:25.341Z,2.78
2022-11-20T03:19:56.876Z,2.81
2022-11-20T03:20:28.527Z,2.75
2022-11-20T03:21:00.186Z,2.83
2022-11-20T03:21:33.538Z,2.66
2022-11-20T03:22:05.086Z,2.75
2022-11-20T03:22:36.728Z,2.76
2022-11-20T03:23:08.306Z,2.72
2022-11-20T03:23:40.723Z,2.69
2022-11-20T03:24:12.305Z,2.72
2022-11-20T03:24:43.853Z,2.71
2022-11-20T03:25:15.511Z,2.71
2022-11-20T03:25:47.061Z,2.72
2022-11-20T03:26:21.801Z,2.76
2022-11-20T03:26:53.463Z,2.79
2022-11-20T03:27:25.035Z,2.76
2022-11-20T03:27:56.695Z,2.69
2022-11-20T03:28:28.277Z,2.65
2022-11-20T03:29:02.181Z,2.66
2022-11-20T03:29:33.786Z,2.63
2022-11-20T03:30:06.491Z,2.56
2022-11-20T03:30:38.103Z,2.65
2022-11-20T03:31:13.173Z,2.73
2022-11-20T03:31:44.841Z,2.65
2022-11-20T03:32:16.421Z,2.69
2022-11-20T03:32:48.374Z,2.63
2022-11-20T03:33:19.947Z,2.62
2022-11-20T03:33:51.841Z,2.59
2022-11-20T03:34:24.197Z,2.73
2022-11-20T03:34:55.764Z,2.76
2022-11-20T03:35:27.419Z,2.72
2022-11-20T03:36:03.682Z,2.72
2022-11-20T03:36:35.331Z,2.75
2022-11-20T03:37:07.366Z,2.75
2022-11-20T03:37:38.957Z,2.71
2022-11-20T03:38:10.583Z,2.75
2022-11-20T03:38:42.487Z,2.71
2022-11-20T03:39:14.205Z,2.69
2022-11-20T03:39:45.754Z,2.72
2022-11-20T03:40:17.326Z,2.79
2022-11-20T03:40:49.830Z,2.72
2022-11-20T03:41:24.543Z,2.73
2022-11-20T03:41:56.090Z,2.78
2022-11-20T03:42:46.305Z,2.79
2022-11-20T03:43:17.852Z,2.79
2022-11-20T03:43:54.806Z,2.78
2022-11-20T03:44:26.434Z,2.83
2022-11-20T03:44:57.975Z,2.82
2022-11-20T03:45:29.520Z,2.88
2022-11-20T03:46:01.706Z,2.93
2022-11-20T03:46:33.689Z,2.92
2022-11-20T03:47:05.213Z,2.90
2022-11-20T03:47:36.997Z,2.88
2022-11-20T03:48:08.577Z,2.93
2022-11-20T03:48:40.195Z,2.90
2022-11-20T03:49:11.819Z,2.96
2022-11-20T03:49:43.931Z,2.86
2022-11-20T03:50:15.692Z,2.78
2022-11-20T03:50:48.650Z,2.95
2022-11-20T03:51:29.015Z,2.83
2022-11-20T03:52:00.558Z,2.90
2022-11-20T03:52:32.093Z,2.83
2022-11-20T03:53:03.631Z,2.83
2022-11-20T03:53:35.356Z,2.78
2022-11-20T03:54:09.227Z,2.72
2022-11-20T03:54:40.829Z,2.71
2022-11-20T03:55:12.404Z,2.76
2022-11-20T03:55:44.113Z,2.69
2022-11-20T03:56:17.637Z,2.68
2022-11-20T03:56:49.206Z,2.65
2022-11-20T03:57:20.778Z,2.66
2022-11-20T03:57:52.518Z,2.69
2022-11-20T03:58:24.108Z,2.72
2022-11-20T03:58:56.053Z,2.75
2022-11-20T03:59:27.662Z,2.72
2022-11-20T03:59:59.230Z,2.73
2022-11-20T04:00:30.767Z,2.75
2022-11-20T04:01:07.525Z,2.73
2022-11-20T04:01:39.206Z,2.83
2022-11-20T04:02:10.902Z,2.86
2022-11-20T04:02:42.503Z,2.82
2022-11-20T04:03:14.042Z,2.79
2022-11-20T04:03:46.735Z,2.68
2022-11-20T04:04:18.314Z,2.63
2022-11-20T04:04:49.910Z,2.63
2022-11-20T04:05:21.459Z,2.68
2022-11-20T04:05:53.030Z,2.62
2022-11-20T04:06:30.036Z,2.62
2022-11-20T04:07:01.670Z,2.62
2022-11-20T04:07:35.069Z,2.62
2022-11-20T04:08:06.714Z,2.65
2022-11-20T04:08:39.104Z,2.68
2022-11-20T04:09:10.873Z,2.66
2022-11-20T04:09:42.430Z,2.65
2022-11-20T04:10:14.080Z,2.62
2022-11-20T04:10:45.651Z,2.69
2022-11-20T04:11:22.553Z,2.68
2022-11-20T04:11:54.123Z,2.66
2022-11-20T04:12:25.669Z,2.75
2022-11-20T04:12:57.193Z,2.81
2022-11-20T04:13:28.811Z,2.79
2022-11-20T04:14:02.753Z,2.72
2022-11-20T04:14:34.349Z,2.71
2022-11-20T04:15:06.480Z,2.69
2022-11-20T04:15:38.617Z,2.72
2022-11-20T04:16:10.939Z,2.66
2022-11-20T04:16:43.022Z,2.68
2022-11-20T04:17:14.582Z,2.65
2022-11-20T04:17:46.158Z,2.72
2022-11-20T04:18:17.696Z,2.73
2022-11-20T04:18:53.957Z,2.68
2022-11-20T04:19:25.493Z,2.66
2022-11-20T04:19:57.074Z,2.71
2022-11-20T04:20:28.673Z,2.63
2022-11-20T04:21:00.814Z,2.61
2022-11-20T04:21:32.718Z,2.55
2022-11-20T04:22:04.386Z,2.56
2022-11-20T04:22:35.953Z,2.55
2022-11-20T04:23:07.530Z,2.58
2022-11-20T04:23:39.986Z,2.58
2022-11-20T04:24:11.881Z,2.59
2022-11-20T04:24:43.493Z,2.58
2022-11-20T04:25:15.070Z,2.63
2022-11-20T04:25:46.661Z,2.69
2022-11-20T04:26:18.462Z,2.72
2022-11-20T04:26:50.049Z,2.78
2022-11-20T04:27:21.939Z,2.68
2022-11-20T04:27:53.490Z,2.63
2022-11-20T04:28:25.201Z,2.65
2022-11-20T04:28:57.854Z,2.65
2022-11-20T04:29:29.442Z,2.61
2022-11-20T04:30:01.054Z,2.59
2022-11-20T04:30:32.681Z,2.58
2022-11-20T04:31:11.484Z,2.56
2022-11-20T04:31:43.065Z,2.58
2022-11-20T04:32:14.627Z,2.55
2022-11-20T04:32:46.212Z,2.56
2022-11-20T04:33:17.835Z,2.59
2022-11-20T04:33:49.987Z,2.58
2022-11-20T04:34:21.572Z,2.53
2022-11-20T04:34:53.151Z,2.51
2022-11-20T04:35:24.754Z,2.52
2022-11-20T04:35:56.506Z,2.51
2022-11-20T04:36:29.186Z,2.51
2022-11-20T04:37:01.119Z,2.58
2022-11-20T04:37:32.707Z,2.48
2022-11-20T04:38:05.019Z,2.53
2022-11-20T04:38:36.699Z,2.52
2022-11-20T04:39:08.369Z,2.48
2022-11-20T04:39:40.006Z,2.55
2022-11-20T04:40:12.222Z,2.51
2022-11-20T04:40:43.761Z,2.46
2022-11-20T04:41:20.252Z,2.45
2022-11-20T04:42:14.393Z,2.41
2022-11-20T04:42:45.970Z,2.49
2022-11-20T04:43:17.522Z,2.49
2022-11-20T04:43:50.566Z,2.48
2022-11-20T04:44:22.146Z,2.42
2022-11-20T04:44:53.704Z,2.51
2022-11-20T04:45:25.294Z,2.49
2022-11-20T04:45:58.377Z,2.51
2022-11-20T04:46:32.581Z,2.45
2022-11-20T04:47:04.179Z,2.44
2022-11-20T04:47:35.803Z,2.51
2022-11-20T04:48:07.381Z,2.48
2022-11-20T04:48:38.945Z,2.42
2022-11-20T04:49:11.912Z,2.46
2022-11-20T04:49:43.547Z,2.38
2022-11-20T04:50:15.270Z,2.27
2022-11-20T04:50:46.946Z,2.32
2022-11-20T04:51:18.703Z,2.40
2022-11-20T04:51:50.238Z,2.48
2022-11-20T04:52:21.797Z,2.45
2022-11-20T04:52:53.417Z,2.41
2022-11-20T04:53:25.214Z,2.59
2022-11-20T04:53:56.859Z,2.53
2022-11-20T04:54:28.518Z,2.51
2022-11-20T04:55:00.054Z,2.49
2022-11-20T04:55:31.592Z,2.53
2022-11-20T04:56:05.890Z,2.58
2022-11-20T04:56:37.831Z,2.55
2022-11-20T04:57:14.274Z,2.56
2022-11-20T04:57:46.246Z,2.59
2022-11-20T04:58:18.207Z,2.52
2022-11-20T04:58:49.911Z,2.55
2022-11-20T04:59:21.771Z,2.59
2022-11-20T04:59:53.606Z,2.55
2022-11-20T05:00:25.479Z,2.53
2022-11-20T05:01:04.422Z,2.53
2022-11-20T05:01:36.005Z,2.53
2022-11-20T05:02:07.632Z,2.55
2022-11-20T05:02:39.215Z,2.55
2022-11-20T05:03:10.823Z,2.45
2022-11-20T05:03:43.920Z,2.41
2022-11-20T05:04:15.462Z,2.42
2022-11-20T05:04:47.130Z,2.41
2022-11-20T05:05:19.264Z,2.42
2022-11-20T05:05:50.854Z,2.34
2022-11-20T05:06:23.121Z,2.42
2022-11-20T05:06:54.737Z,2.40
2022-11-20T05:07:26.359Z,2.45
2022-11-20T05:07:59.047Z,2.41
2022-11-20T05:08:31.629Z,2.48
2022-11-20T05:09:03.314Z,2.51
2022-11-20T05:09:34.930Z,2.55
2022-11-20T05:10:07.074Z,2.59
2022-11-20T05:10:39.022Z,2.59
2022-11-20T05:11:16.563Z,2.53
2022-11-20T05:11:51.373Z,2.56
2022-11-20T05:12:23.206Z,2.55
2022-11-20T05:12:54.857Z,2.56
2022-11-20T05:13:26.491Z,2.62
2022-11-20T05:13:59.878Z,2.68
2022-11-20T05:14:31.553Z,2.73
2022-11-20T05:15:03.346Z,2.66
2022-11-20T05:15:35.062Z,2.68
2022-11-20T05:16:15.553Z,2.63
2022-11-20T05:16:47.422Z,2.65
2022-11-20T05:17:19.017Z,2.61
2022-11-20T05:17:53.695Z,2.63
2022-11-20T05:18:25.238Z,2.73
2022-11-20T05:18:56.878Z,2.75
2022-11-20T05:19:28.460Z,2.58
2022-11-20T05:20:00.091Z,2.52
2022-11-20T05:20:31.666Z,2.63
2022-11-20T05:21:04.321Z,2.72
2022-11-20T05:21:35.862Z,2.71
2022-11-20T05:22:07.666Z,2.63
2022-11-20T05:22:39.279Z,2.68
2022-11-20T05:23:10.923Z,2.62
2022-11-20T05:23:43.551Z,2.62
2022-11-20T05:24:15.095Z,2.59
2022-11-20T05:24:46.633Z,2.59
2022-11-20T05:25:18.274Z,2.62
2022-11-20T05:25:57.520Z,2.61
2022-11-20T05:26:30.376Z,2.58
2022-11-20T05:27:01.928Z,2.63
2022-11-20T05:27:33.498Z,2.69
2022-11-20T05:28:05.032Z,2.65
2022-11-20T05:28:36.613Z,2.63
2022-11-20T05:29:10.322Z,2.71
2022-11-20T05:29:41.899Z,2.69
2022-11-20T05:30:14.241Z,2.75
2022-11-20T05:30:45.774Z,2.73
2022-11-20T05:31:28.358Z,2.75
2022-11-20T05:32:00.137Z,2.73
2022-11-20T05:32:31.918Z,2.75
2022-11-20T05:33:03.555Z,2.81
2022-11-20T05:33:36.411Z,2.76
2022-11-20T05:34:08.079Z,2.76
2022-11-20T05:34:39.619Z,2.72
2022-11-20T05:35:11.174Z,2.75
2022-11-20T05:35:43.130Z,2.79
2022-11-20T05:36:15.930Z,2.75
2022-11-20T05:36:47.530Z,2.81
2022-11-20T05:37:19.186Z,2.73
2022-11-20T05:37:50.795Z,2.79
2022-11-20T05:38:22.370Z,2.86
2022-11-20T05:38:59.716Z,2.92
2022-11-20T05:39:32.986Z,2.85
2022-11-20T05:40:05.210Z,2.86
2022-11-20T05:40:37.043Z,2.83
2022-11-20T05:41:14.079Z,2.82
2022-11-20T05:41:45.656Z,2.89
2022-11-20T05:42:32.676Z,2.85
2022-11-20T05:43:04.279Z,2.81
2022-11-20T05:43:37.331Z,2.75
2022-11-20T05:44:12.049Z,2.68
2022-11-20T05:44:43.629Z,2.75
2022-11-20T05:45:15.222Z,2.83
2022-11-20T05:45:56.107Z,2.75
2022-11-20T05:46:29.502Z,2.79
2022-11-20T05:47:01.378Z,2.88
2022-11-20T05:47:35.091Z,2.83
2022-11-20T05:48:06.723Z,2.85
2022-11-20T05:48:39.316Z,2.81
2022-11-20T05:49:10.954Z,2.75
2022-11-20T05:49:42.496Z,2.72
2022-11-20T05:50:15.466Z,2.79
2022-11-20T05:50:47.001Z,2.83
2022-11-20T05:51:20.138Z,2.76
2022-11-20T05:51:51.720Z,2.79
2022-11-20T05:52:23.374Z,2.83
2022-11-20T05:52:55.058Z,2.78
2022-11-20T05:53:27.846Z,2.81
2022-11-20T05:53:59.703Z,2.78
2022-11-20T05:54:31.312Z,2.72
2022-11-20T05:55:03.092Z,2.68
2022-11-20T05:55:34.753Z,2.68
2022-11-20T05:56:10.962Z,2.73
2022-11-20T05:56:42.949Z,2.79
2022-11-20T05:57:14.545Z,2.82
2022-11-20T05:57:46.185Z,2.73
2022-11-20T05:58:17.725Z,2.79
2022-11-20T05:58:50.092Z,2.81
2022-11-20T05:59:21.955Z,2.72
2022-11-20T05:59:53.693Z,2.72
2022-11-20T06:00:25.259Z,2.66
2022-11-20T06:01:11.781Z,2.65
2022-11-20T06:01:43.475Z,2.61
2022-11-20T06:02:15.127Z,2.69
2022-11-20T06:02:46.849Z,2.63
2022-11-20T06:03:18.553Z,2.61
2022-11-20T06:03:51.854Z,2.65
2022-11-20T06:04:23.722Z,2.66
2022-11-20T06:04:55.265Z,2.58
2022-11-20T06:05:26.796Z,2.62
2022-11-20T06:06:00.387Z,2.69
2022-11-20T06:06:31.994Z,2.61
2022-11-20T06:07:03.803Z,2.56
2022-11-20T06:07:35.536Z,2.65
2022-11-20T06:08:07.250Z,2.61
2022-11-20T06:08:38.863Z,2.58
2022-11-20T06:09:10.525Z,2.65
2022-11-20T06:09:42.101Z,2.62
2022-11-20T06:10:13.814Z,2.61
2022-11-20T06:10:45.367Z,2.52
2022-11-20T06:11:17.437Z,2.56
2022-11-20T06:11:48.994Z,2.56
2022-11-20T06:12:20.575Z,2.58
2022-11-20T06:12:52.162Z,2.58
2022-11-20T06:13:23.909Z,2.59
2022-11-20T06:13:55.500Z,2.63
2022-11-20T06:14:27.168Z,2.63
2022-11-20T06:14:58.759Z,2.66
2022-11-20T06:15:30.311Z,2.68
2022-11-20T06:16:02.604Z,2.75
2022-11-20T06:16:34.407Z,2.65
2022-11-20T06:17:05.943Z,2.66
2022-11-20T06:17:37.494Z,2.69
2022-11-20T06:18:09.062Z,2.66
2022-11-20T06:18:40.886Z,2.71
2022-11-20T06:19:12.466Z,2.73
2022-11-20T06:19:44.047Z,2.66
2022-11-20T06:20:15.834Z,2.65
2022-11-20T06:20:47.819Z,2.68
2022-11-20T06:21:21.790Z,2.68
2022-11-20T06:21:53.338Z,2.72
2022-11-20T06:22:24.906Z,2.69
2022-11-20T06:22:56.511Z,2.66
2022-11-20T06:23:30.030Z,2.61
2022-11-20T06:24:01.611Z,2.61
2022-11-20T06:24:33.191Z,2.63
2022-11-20T06:25:04.959Z,2.59
2022-11-20T06:25:43.550Z,2.59
2022-11-20T06:26:21.645Z,2.62
2022-11-20T06:26:53.266Z,2.66
2022-11-20T06:27:24.839Z,2.63
2022-11-20T06:27:56.418Z,2.56
2022-11-20T06:28:27.999Z,2.63
2022-11-20T06:28:59.566Z,2.62
2022-11-20T06:29:33.889Z,2.68
2022-11-20T06:30:06.450Z,2.69
2022-11-20T06:30:38.038Z,2.66
2022-11-20T06:31:12.382Z,2.66
2022-11-20T06:31:43.944Z,2.65
2022-11-20T06:32:15.514Z,2.63
2022-11-20T06:32:47.055Z,2.65
2022-11-20T06:33:18.650Z,2.66
2022-11-20T06:33:51.322Z,2.69
2022-11-20T06:34:22.881Z,2.66
2022-11-20T06:34:54.414Z,2.62
2022-11-20T06:35:26.118Z,2.62
2022-11-20T06:36:05.672Z,2.69
2022-11-20T06:36:40.651Z,2.78
2022-11-20T06:37:12.202Z,2.81
2022-11-20T06:37:43.779Z,2.81
2022-11-20T06:38:15.352Z,2.85
2022-11-20T06:38:47.359Z,2.79
2022-11-20T06:39:19.093Z,2.78
2022-11-20T06:39:50.774Z,2.81
2022-11-20T06:40:22.304Z,2.78
2022-11-20T06:40:54.183Z,2.83
2022-11-20T06:41:26.351Z,2.88
2022-11-20T06:41:59.183Z,2.86
2022-11-20T06:42:31.078Z,2.89
2022-11-20T06:43:02.675Z,2.92
2022-11-20T06:43:34.255Z,2.95
2022-11-20T06:44:06.726Z,2.89
2022-11-20T06:44:38.324Z,2.93
2022-11-20T06:45:10.454Z,2.92
2022-11-20T06:45:41.995Z,2.88
2022-11-20T06:46:15.132Z,2.96
2022-11-20T06:46:46.687Z,2.92
2022-11-20T06:47:18.226Z,2.92
2022-11-20T06:47:49.794Z,2.97
2022-11-20T06:48:21.661Z,2.90
2022-11-20T06:48:53.229Z,2.82
2022-11-20T06:49:25.113Z,2.85
2022-11-20T06:49:56.822Z,2.89
2022-11-20T06:50:28.367Z,2.90
2022-11-20T06:51:00.487Z,2.92
2022-11-20T06:51:32.032Z,2.93
2022-11-20T06:52:03.797Z,2.89
2022-11-20T06:52:38.358Z,2.90
2022-11-20T06:53:13.878Z,2.89
2022-11-20T06:53:45.808Z,2.93
2022-11-20T06:54:18.737Z,2.88
2022-11-20T06:54:50.327Z,2.93
2022-11-20T06:55:21.968Z,2.85
2022-11-20T06:55:57.186Z,2.82
2022-11-20T06:56:29.175Z,2.89
2022-11-20T06:57:00.739Z,2.90
2022-11-20T06:57:32.414Z,2.92
2022-11-20T06:58:03.946Z,2.99
2022-11-20T06:58:36.586Z,2.92
2022-11-20T06:59:08.570Z,2.92
2022-11-20T06:59:40.163Z,2.96
2022-11-20T07:00:12.554Z,2.99
2022-11-20T07:00:44.556Z,3.04
2022-11-20T07:01:16.700Z,2.99
2022-11-20T07:01:48.387Z,3.00
2022-11-20T07:02:19.934Z,3.02
2022-11-20T07:02:51.516Z,2.95
2022-11-20T07:03:23.094Z,2.96
2022-11-20T07:03:54.742Z,3.00
2022-11-20T07:04:26.339Z,3.02
2022-11-20T07:04:57.878Z,3.14
2022-11-20T07:05:29.510Z,3.14
2022-11-20T07:06:02.223Z,3.14
2022-11-20T07:06:33.811Z,3.19
2022-11-20T07:07:07.062Z,3.21
2022-11-20T07:07:38.746Z,3.03
2022-11-20T07:08:10.437Z,3.14
2022-11-20T07:08:42.022Z,3.17
2022-11-20T07:09:13.625Z,3.04
2022-11-20T07:09:45.174Z,3.13
2022-11-20T07:10:17.128Z,3.17
2022-11-20T07:10:48.774Z,3.23
2022-11-20T07:11:20.347Z,3.16
2022-11-20T07:11:51.914Z,3.21
2022-11-20T07:12:23.490Z,3.28
2022-11-20T07:12:55.814Z,3.34
2022-11-20T07:13:28.828Z,3.35
2022-11-20T07:14:00.427Z,3.31
2022-11-20T07:14:32.027Z,3.31
2022-11-20T07:15:03.950Z,3.35
2022-11-20T07:15:35.618Z,3.41
2022-11-20T07:16:09.094Z,3.40
2022-11-20T07:16:41.295Z,3.35
2022-11-20T07:17:13.854Z,3.27
2022-11-20T07:17:45.495Z,3.24
2022-11-20T07:18:17.070Z,3.19
2022-11-20T07:18:50.705Z,3.26
2022-11-20T07:19:22.715Z,3.16
2022-11-20T07:19:54.478Z,3.28